Hendersonville, North Carolina
Current Conditions -  °F | °C
As of 10:54 AM on Saturday 25 Oct 2014 (Local Time) from KAVL Reporting Station
Clear Clear  
Wind Chill: 57°   Ceiling: Unl
Heat Index: 57°   Visibility: 10mi
Dew Point: 40°   Wind: 12mph
Humidity: 53%   Direction: 350°N
Pressure: 30.1"   Gusts: NA
Location:  35.32°N, 82.46°W
Report Text: KAVL 251454Z 35010KT 10SM CLR 14/04 A3010 RMK AO2 SLP186 T01390044 50003
Loading
Personal Weather Stations






























Interactive Weather Map New forecast layout! Learn more

10-Day Weather Forecast

Advertisements
Track Severe Weather on mobile